»·PEaware :: HADAI 1L1-2O7

HADAI :: 1L1-2O7

FLIGHT INFORMATION

Flight Status: Arrived
Operator: Unknown
More flights by this operator :: More flights under this callsign
Pilot: Tamer M. (30101)
Aircraft: SOCATA TBM-900
(TBM9)
More flights by this aircraft type
Origin: 1L1 Lincoln Co
United States
Destination: 2O7 Independence
United States
More flights between these airports :: More routes between these airports
Route:
File this flight plan on PilotEdge
Remarks:
Altitude:
(Current/Filed)
12,500ft
Speed:
(Current/Filed)
280kts
Departed: 06-Dec-20 01:00 PM
Arrived: 06-Dec-20 02:01 PM
Distance/Time
Traveled:
190nm/1:01
Distance/Time
To Go:
Arrived

Flight Plot

Page will automatically refresh every two minutes.


Map Options




Map Legend


Flown Route
Filed Route
Departure Airport
Arrival Airport
Navaid (VOR, NDB)
Fix

Horizontal Profiles

Position Reports

Time Latitude Longitude Heading Altitude Ground
Speed
06-Dec-20 12:57 37.793077 -114.418622 5 4837ft 0kts
06-Dec-20 12:58 37.793077 -114.418622 5 4837ft 0kts
06-Dec-20 12:59 37.788349 -114.419934 183 4817ft 97kts
06-Dec-20 13:00 37.757612 -114.429162 227 6460ft 138kts
06-Dec-20 13:01 37.723506 -114.458913 204 8957ft 152kts
06-Dec-20 13:02 37.685102 -114.482615 204 11672ft 156kts
06-Dec-20 13:03 37.635798 -114.513712 206 12500ft 251kts
06-Dec-20 13:04 37.567575 -114.556613 206 12498ft 287kts
06-Dec-20 13:05 37.495187 -114.602455 205 12489ft 292kts
06-Dec-20 13:06 37.422090 -114.647157 205 12487ft 293kts
06-Dec-20 13:07 37.348728 -114.692211 205 12488ft 293kts
06-Dec-20 13:08 37.275284 -114.737107 205 12471ft 293kts
06-Dec-20 13:09 37.201681 -114.782060 205 12430ft 294kts
06-Dec-20 13:10 37.128088 -114.826837 205 12433ft 293kts
06-Dec-20 13:11 37.054804 -114.871367 205 12429ft 293kts
06-Dec-20 13:12 36.981284 -114.915923 205 12431ft 292kts
06-Dec-20 13:13 36.908119 -114.960177 205 12415ft 292kts
06-Dec-20 13:14 36.835905 -115.003669 205 12400ft 286kts
06-Dec-20 13:15 36.764153 -115.046914 205 12402ft 285kts
06-Dec-20 13:16 36.692727 -115.089883 206 12403ft 285kts
06-Dec-20 13:17 36.621232 -115.132805 205 12403ft 285kts
06-Dec-20 13:18 36.549618 -115.174602 205 12424ft 284kts
06-Dec-20 13:19 36.477992 -115.217636 205 12430ft 286kts
06-Dec-20 13:20 36.406187 -115.260410 205 12430ft 286kts
06-Dec-20 13:21 36.358075 -115.331718 268 12432ft 288kts
06-Dec-20 13:22 36.390567 -115.420452 302 12430ft 288kts
06-Dec-20 13:23 36.407106 -115.516442 271 12411ft 289kts
06-Dec-20 13:24 36.422444 -115.614157 282 12404ft 289kts
06-Dec-20 13:25 36.438057 -115.712038 282 12404ft 288kts
06-Dec-20 13:26 36.454049 -115.809626 281 12402ft 289kts
06-Dec-20 13:27 36.469875 -115.907495 281 12405ft 289kts
06-Dec-20 13:28 36.485649 -116.005295 281 12404ft 288kts
06-Dec-20 13:29 36.501335 -116.103144 281 12405ft 288kts
06-Dec-20 13:30 36.511107 -116.201650 268 12403ft 288kts
06-Dec-20 13:31 36.506415 -116.300929 265 12492ft 287kts
06-Dec-20 13:32 36.498433 -116.400024 263 12496ft 288kts
06-Dec-20 13:33 36.490115 -116.498924 265 12498ft 288kts
06-Dec-20 13:34 36.482801 -116.598151 264 12496ft 286kts
06-Dec-20 13:35 36.475113 -116.696219 264 12496ft 284kts
06-Dec-20 13:36 36.467381 -116.794190 264 12495ft 285kts
06-Dec-20 13:37 36.459738 -116.891732 264 12495ft 284kts
06-Dec-20 13:38 36.452099 -116.989684 264 12496ft 284kts
06-Dec-20 13:39 36.444550 -117.087227 264 12498ft 284kts
06-Dec-20 13:40 36.435575 -117.184995 263 12497ft 284kts
06-Dec-20 13:41 36.425369 -117.282363 262 12496ft 284kts
06-Dec-20 13:42 36.415082 -117.379723 262 12497ft 285kts
06-Dec-20 13:43 36.404983 -117.476825 262 12496ft 282kts
06-Dec-20 13:44 36.395798 -117.572902 262 12496ft 279kts
06-Dec-20 13:45 36.386564 -117.668663 262 12495ft 279kts
06-Dec-20 13:46 36.377420 -117.764358 262 12498ft 280kts
06-Dec-20 13:47 36.368389 -117.860503 263 12495ft 279kts
06-Dec-20 13:48 36.361923 -117.956075 278 12498ft 280kts
06-Dec-20 13:49 36.402839 -118.017772 345 11379ft 217kts
06-Dec-20 13:50 36.455973 -118.037352 332 10371ft 187kts
06-Dec-20 13:51 36.503971 -118.051071 6 9551ft 176kts
06-Dec-20 13:52 36.549253 -118.065099 335 8741ft 166kts
06-Dec-20 13:53 36.592394 -118.082091 338 8005ft 160kts
06-Dec-20 13:54 36.632654 -118.104225 336 7301ft 156kts
06-Dec-20 13:55 36.671690 -118.125776 337 6625ft 145kts
06-Dec-20 13:56 36.705674 -118.144613 337 5896ft 125kts
06-Dec-20 13:57 36.736657 -118.161790 336 5237ft 117kts
06-Dec-20 13:58 36.764204 -118.177190 335 4789ft 103kts
06-Dec-20 13:59 36.791870 -118.192045 337 4396ft 108kts
06-Dec-20 14:00 36.816025 -118.204840 337 3900ft 39kts
06-Dec-20 14:01 36.820111 -118.206645 148 3897ft 0kts
06-Dec-20 14:02 36.820111 -118.206645 148 3897ft 0kts
06-Dec-20 14:03 36.820111 -118.206645 148 3897ft 0kts
06-Dec-20 14:04 36.820111 -118.206645 148 3897ft 0kts
06-Dec-20 14:05 36.820111 -118.206645 148 3897ft 0kts

Navigation Log

Ident Type
Flight plan parsing failed, navigation log unavailable